Time;durP1;ratioP1;P1;durP2;ratioP2;P2;SDS_P1;SDS_P2;PMS_P1;PMS_P2;Temp;Humidity;BMP_temperature;BMP_pressure;BME280_temperature;BME280_humidity;BME280_pressure;Samples;Min_cycle;Max_cycle;Signal;HPM_P1;HPM_P2
2022/07/25 00:01:44;;;;;;;10.23;8.55;;;21.80;80.40;;;;;;5111135;27;20024;-68
2022/07/25 00:04:11;;;;;;;13.73;8.35;;;21.80;80.20;;;;;;5113144;27;20107;-67
2022/07/25 00:06:37;;;;;;;11.25;8.57;;;21.80;80.50;;;;;;5115025;27;20019;-68
2022/07/25 00:09:03;;;;;;;11.82;8.50;;;21.70;80.80;;;;;;5116995;27;20084;-68
2022/07/25 00:11:29;;;;;;;10.20;8.60;;;21.70;80.50;;;;;;5109957;27;20024;-68
2022/07/25 00:13:55;;;;;;;11.38;8.55;;;21.80;80.40;;;;;;5114119;27;20039;-67
2022/07/25 00:16:21;;;;;;;10.20;8.32;;;21.80;80.40;;;;;;5114583;27;20019;-68
2022/07/25 00:18:46;;;;;;;14.82;8.57;;;21.80;80.30;;;;;;5114251;27;20114;-67
2022/07/25 00:21:12;;;;;;;10.88;8.80;;;21.90;80.10;;;;;;5112516;27;20035;-68
2022/07/25 00:23:38;;;;;;;12.40;8.30;;;21.80;80.10;;;;;;5110004;27;20586;-67
2022/07/25 00:26:04;;;;;;;10.07;8.02;;;21.80;80.10;;;;;;5109259;27;20023;-66
2022/07/25 00:28:32;;;;;;;12.60;8.65;;;21.80;80.10;;;;;;5114988;27;20061;-66
2022/07/25 00:30:58;;;;;;;10.82;8.68;;;21.90;80.00;;;;;;5114709;27;20030;-66
2022/07/25 00:33:24;;;;;;;10.57;8.77;;;21.90;79.90;;;;;;5124827;27;20022;-68
2022/07/25 00:35:52;;;;;;;13.70;8.73;;;21.90;79.50;;;;;;5118481;27;20438;-69
2022/07/25 00:38:18;;;;;;;14.23;9.32;;;21.90;79.60;;;;;;5111781;27;20027;-67
2022/07/25 00:40:44;;;;;;;12.82;8.75;;;21.90;79.60;;;;;;5113732;27;20084;-67
2022/07/25 00:43:09;;;;;;;10.50;8.65;;;21.90;79.90;;;;;;5107273;27;20032;-67
2022/07/25 00:45:44;;;;;;;11.90;8.90;;;21.80;79.80;;;;;;5041925;28;20860;-68
2022/07/25 00:48:16;;;;;;;11.38;9.00;;;21.90;79.70;;;;;;5045083;28;20071;-67
2022/07/25 00:50:44;;;;;;;12.18;9.50;;;21.90;79.40;;;;;;5045516;28;20030;-68
2022/07/25 00:53:10;;;;;;;11.43;9.10;;;21.90;79.20;;;;;;5048233;28;21458;-69
2022/07/25 00:55:36;;;;;;;11.98;8.98;;;21.90;78.70;;;;;;5041003;28;20109;-69
2022/07/25 00:58:02;;;;;;;13.82;8.85;;;22.00;78.70;;;;;;5040077;28;20025;-68
2022/07/25 01:00:27;;;;;;;11.75;9.15;;;21.90;78.50;;;;;;5049264;28;20029;-68
2022/07/25 01:02:53;;;;;;;11.68;9.13;;;22.00;78.60;;;;;;5045700;28;20075;-68
2022/07/25 01:05:19;;;;;;;12.20;8.90;;;22.00;78.00;;;;;;5048754;28;20029;-68
2022/07/25 01:07:48;;;;;;;12.40;9.25;;;22.00;78.20;;;;;;5046247;28;20055;-68
2022/07/25 01:10:13;;;;;;;10.20;8.50;;;22.10;77.40;;;;;;5049039;28;20141;-68
2022/07/25 01:12:54;;;;;;;12.40;8.50;;;22.10;77.40;;;;;;5048819;28;20108;-68
2022/07/25 01:15:21;;;;;;;11.07;8.38;;;22.10;76.90;;;;;;5042675;28;20030;-69
2022/07/25 01:17:47;;;;;;;12.98;9.40;;;22.10;77.20;;;;;;5046799;28;20033;-68
2022/07/25 01:20:20;;;;;;;12.10;8.63;;;22.10;77.40;;;;;;5039862;28;20057;-68
2022/07/25 01:22:46;;;;;;;11.27;8.88;;;22.10;77.70;;;;;;5045620;28;20037;-69
2022/07/25 01:25:14;;;;;;;12.20;8.40;;;22.10;77.80;;;;;;5044612;28;20033;-69
2022/07/25 01:27:41;;;;;;;12.50;8.82;;;22.00;78.00;;;;;;5047777;28;20049;-68
2022/07/25 01:30:10;;;;;;;11.88;8.45;;;22.00;78.10;;;;;;5045900;28;20032;-68
2022/07/25 01:32:36;;;;;;;10.60;8.80;;;21.90;78.60;;;;;;5043749;28;20026;-68
2022/07/25 01:35:10;;;;;;;11.15;8.30;;;21.80;78.50;;;;;;5045478;28;20036;-68
2022/07/25 01:37:35;;;;;;;12.95;8.88;;;21.80;78.40;;;;;;5033546;28;20030;-68
2022/07/25 01:40:02;;;;;;;13.50;9.38;;;21.90;78.40;;;;;;5037280;28;20450;-68
2022/07/25 01:42:28;;;;;;;11.50;8.60;;;21.80;78.60;;;;;;5042941;28;20897;-68
2022/07/25 01:44:54;;;;;;;9.93;8.82;;;21.80;78.40;;;;;;5041435;28;20099;-69
2022/07/25 01:47:20;;;;;;;12.35;9.45;;;21.90;78.60;;;;;;5044316;28;20321;-67
2022/07/25 01:49:45;;;;;;;11.40;9.18;;;21.80;78.70;;;;;;5039720;28;20030;-68
2022/07/25 01:52:12;;;;;;;12.73;9.27;;;21.70;78.80;;;;;;5046539;28;20028;-67
2022/07/25 01:54:38;;;;;;;12.52;9.50;;;21.70;78.80;;;;;;5039559;28;20029;-68
2022/07/25 01:57:04;;;;;;;11.45;8.77;;;21.70;78.90;;;;;;5030525;28;20407;-68
2022/07/25 01:59:30;;;;;;;12.45;8.95;;;21.70;79.30;;;;;;5040523;28;20034;-68
2022/07/25 02:01:55;;;;;;;10.73;8.88;;;21.60;79.40;;;;;;5028294;28;20025;-67
2022/07/25 02:04:22;;;;;;;12.32;9.15;;;21.50;79.60;;;;;;5020519;28;20026;-68
2022/07/25 02:06:48;;;;;;;13.07;10.00;;;21.50;79.90;;;;;;5034535;28;20018;-68
2022/07/25 02:09:14;;;;;;;11.80;9.05;;;21.50;79.80;;;;;;5022611;28;20037;-68
2022/07/25 02:11:40;;;;;;;10.73;8.88;;;21.40;80.20;;;;;;5034695;28;20021;-68
2022/07/25 02:14:05;;;;;;;12.95;9.77;;;21.40;80.20;;;;;;5032542;28;20171;-69
2022/07/25 02:16:31;;;;;;;11.02;9.02;;;21.40;80.20;;;;;;5029265;28;20038;-69
2022/07/25 02:18:57;;;;;;;11.95;9.50;;;21.40;80.30;;;;;;5034185;28;20032;-68
2022/07/25 02:21:23;;;;;;;13.38;9.73;;;21.40;80.40;;;;;;5030915;28;20033;-68
2022/07/25 02:23:48;;;;;;;11.35;9.30;;;21.40;80.30;;;;;;5030053;28;20021;-68
2022/07/25 02:26:14;;;;;;;11.00;8.90;;;21.40;80.30;;;;;;5031695;28;20025;-68
2022/07/25 02:28:40;;;;;;;13.40;9.73;;;21.30;80.90;;;;;;5035787;28;20434;-69
2022/07/25 02:31:06;;;;;;;12.77;9.68;;;21.30;81.10;;;;;;5029604;28;20412;-69
2022/07/25 02:33:31;;;;;;;11.65;9.15;;;21.30;80.90;;;;;;5034602;28;20053;-68
2022/07/25 02:35:57;;;;;;;13.25;9.18;;;21.20;81.00;;;;;;5031531;28;20447;-69
2022/07/25 02:38:23;;;;;;;11.57;9.27;;;21.20;81.40;;;;;;5033781;28;20017;-70
2022/07/25 02:40:51;;;;;;;11.23;9.60;;;21.10;81.50;;;;;;5028717;28;20033;-69
2022/07/25 02:43:17;;;;;;;11.93;9.25;;;21.10;81.60;;;;;;5031799;28;20103;-67
2022/07/25 02:45:43;;;;;;;12.85;9.70;;;21.10;81.50;;;;;;5034737;28;20040;-68
2022/07/25 02:48:09;;;;;;;12.50;9.60;;;21.20;81.40;;;;;;5031525;28;20022;-68
2022/07/25 02:50:35;;;;;;;12.80;9.98;;;21.20;81.60;;;;;;5033831;28;20033;-69
2022/07/25 02:53:01;;;;;;;13.18;9.50;;;21.20;81.60;;;;;;5032268;28;20108;-68
2022/07/25 02:55:26;;;;;;;12.68;9.63;;;21.10;81.70;;;;;;5024765;28;20445;-68
2022/07/25 02:57:52;;;;;;;12.40;9.57;;;21.00;82.40;;;;;;5031771;28;20028;-68
2022/07/25 03:00:18;;;;;;;12.70;9.70;;;20.90;82.20;;;;;;5031563;28;20100;-69
2022/07/25 03:02:44;;;;;;;14.60;9.48;;;21.00;82.00;;;;;;5025207;28;20091;-68
2022/07/25 03:05:12;;;;;;;10.98;9.45;;;21.00;81.70;;;;;;5031676;28;20104;-68
2022/07/25 03:07:41;;;;;;;12.55;9.52;;;21.10;81.50;;;;;;5031182;28;21595;-67
2022/07/25 03:10:08;;;;;;;12.25;9.80;;;21.00;82.50;;;;;;5031292;28;20017;-68
2022/07/25 03:12:34;;;;;;;11.57;10.23;;;20.60;83.90;;;;;;5034594;28;20487;-70
2022/07/25 03:15:02;;;;;;;13.57;9.98;;;20.30;84.50;;;;;;5060698;28;20056;-67
2022/07/25 03:17:28;;;;;;;11.45;9.30;;;20.20;84.60;;;;;;5030474;28;20037;-68
2022/07/25 03:19:54;;;;;;;12.75;9.93;;;20.30;84.40;;;;;;5065644;28;20029;-67
2022/07/25 03:22:21;;;;;;;16.90;10.32;;;20.40;83.80;;;;;;5035027;28;20163;-67
2022/07/25 03:24:46;;;;;;;12.65;10.02;;;20.60;83.30;;;;;;5032681;28;20025;-67
2022/07/25 03:27:12;;;;;;;12.35;9.75;;;20.70;83.00;;;;;;5033921;28;20032;-67
2022/07/25 03:29:38;;;;;;;13.45;9.80;;;20.80;82.60;;;;;;5031748;28;20113;-68
2022/07/25 03:32:04;;;;;;;13.48;10.55;;;20.80;82.70;;;;;;5033166;28;20034;-68
2022/07/25 03:34:30;;;;;;;11.73;9.77;;;20.90;82.80;;;;;;5033267;28;20458;-68
2022/07/25 03:36:55;;;;;;;11.60;9.80;;;20.90;82.40;;;;;;5034539;28;20116;-67
2022/07/25 03:39:23;;;;;;;13.70;9.93;;;20.90;82.90;;;;;;5036486;28;20053;-68
2022/07/25 03:41:49;;;;;;;11.82;10.05;;;20.70;83.20;;;;;;5030836;28;20029;-68
2022/07/25 03:44:15;;;;;;;12.50;10.32;;;20.70;83.10;;;;;;5033344;28;20575;-68
2022/07/25 03:46:42;;;;;;;11.88;10.15;;;20.70;83.30;;;;;;5030918;28;20025;-67
2022/07/25 03:49:07;;;;;;;13.48;9.93;;;20.70;83.40;;;;;;5030685;28;20092;-66
2022/07/25 03:51:35;;;;;;;14.43;10.13;;;20.70;83.40;;;;;;5032549;28;20109;-67
2022/07/25 03:54:01;;;;;;;12.45;10.10;;;20.70;83.10;;;;;;5033224;28;20037;-68
2022/07/25 03:56:48;;;;;;;13.48;9.40;;;20.80;83.20;;;;;;5028598;28;20035;-68
2022/07/25 03:59:18;;;;;;;14.80;9.52;;;20.80;83.00;;;;;;5029640;28;20041;-67
2022/07/25 04:01:45;;;;;;;13.20;10.07;;;20.80;83.40;;;;;;5025873;28;20396;-69
2022/07/25 04:04:13;;;;;;;12.43;9.60;;;20.60;83.90;;;;;;5027332;28;20021;-68
2022/07/25 04:06:39;;;;;;;13.57;9.93;;;20.50;84.20;;;;;;5026636;28;20032;-69
2022/07/25 04:09:06;;;;;;;12.52;9.80;;;20.40;84.70;;;;;;5028797;28;20406;-68
2022/07/25 04:11:32;;;;;;;12.98;9.90;;;20.40;84.90;;;;;;5024052;28;20040;-68
2022/07/25 04:13:57;;;;;;;12.73;9.85;;;20.40;85.30;;;;;;5034295;28;20033;-68
2022/07/25 04:16:26;;;;;;;11.60;10.20;;;20.30;85.30;;;;;;5030325;28;20037;-68
2022/07/25 04:18:52;;;;;;;12.02;9.85;;;20.30;85.60;;;;;;5033176;28;20036;-68
2022/07/25 04:21:17;;;;;;;13.35;9.85;;;20.30;85.80;;;;;;5031028;28;20108;-69
2022/07/25 04:23:43;;;;;;;13.43;10.15;;;20.40;85.40;;;;;;5030727;28;20033;-67
2022/07/25 04:26:09;;;;;;;13.43;9.85;;;20.40;85.60;;;;;;5030777;28;20109;-68
2022/07/25 04:28:34;;;;;;;12.77;9.88;;;20.40;85.60;;;;;;5031156;28;20560;-68
2022/07/25 04:31:02;;;;;;;11.45;10.07;;;20.40;85.90;;;;;;5036338;28;20021;-69
2022/07/25 04:33:28;;;;;;;11.73;9.73;;;20.30;85.90;;;;;;5032923;28;20029;-69
2022/07/25 04:35:54;;;;;;;12.77;10.80;;;20.10;86.00;;;;;;5035803;28;20030;-68
2022/07/25 04:38:22;;;;;;;13.00;10.85;;;19.90;86.70;;;;;;5028759;28;20032;-68
2022/07/25 04:40:48;;;;;;;13.07;11.23;;;19.70;87.20;;;;;;5027122;28;20033;-70
2022/07/25 04:43:13;;;;;;;13.25;10.93;;;19.50;88.00;;;;;;5034528;28;20030;-68
2022/07/25 04:45:39;;;;;;;15.40;11.20;;;19.40;88.40;;;;;;5029045;28;20137;-68
2022/07/25 04:48:05;;;;;;;13.57;10.85;;;19.30;89.00;;;;;;5031620;28;20022;-68
2022/07/25 04:50:31;;;;;;;13.50;11.02;;;19.30;89.40;;;;;;5034787;28;20049;-68
2022/07/25 04:52:57;;;;;;;14.25;11.00;;;19.20;89.90;;;;;;5029112;28;20025;-68
2022/07/25 04:55:22;;;;;;;14.18;10.85;;;19.20;90.10;;;;;;5038484;28;20032;-68
2022/07/25 04:57:48;;;;;;;12.50;10.18;;;19.20;90.10;;;;;;5031689;28;20022;-68
2022/07/25 05:00:14;;;;;;;15.80;11.20;;;19.30;90.20;;;;;;5029420;28;20055;-68
2022/07/25 05:02:41;;;;;;;14.30;11.43;;;19.30;90.10;;;;;;5030727;28;20025;-68
2022/07/25 05:05:07;;;;;;;13.77;10.52;;;19.40;90.10;;;;;;5027408;28;20030;-68
2022/07/25 05:07:36;;;;;;;12.05;9.77;;;19.60;89.70;;;;;;5033334;28;20036;-69
2022/07/25 05:10:03;;;;;;;13.40;10.90;;;19.80;89.30;;;;;;5030804;28;20326;-68
2022/07/25 05:12:29;;;;;;;15.02;10.27;;;20.20;87.60;;;;;;5032704;28;20112;-68
2022/07/25 05:14:55;;;;;;;11.98;9.55;;;20.40;87.20;;;;;;5028464;28;20494;-69
2022/07/25 05:17:21;;;;;;;12.38;9.60;;;20.60;86.50;;;;;;5032698;28;20037;-68
2022/07/25 05:19:46;;;;;;;11.05;9.70;;;21.00;85.00;;;;;;5029594;28;20049;-68
2022/07/25 05:22:12;;;;;;;10.15;8.98;;;21.40;83.70;;;;;;5033136;28;20376;-68
2022/07/25 05:24:38;;;;;;;11.18;9.48;;;21.60;83.40;;;;;;5033077;28;20418;-69
2022/07/25 05:27:04;;;;;;;15.88;10.00;;;21.90;82.00;;;;;;5029901;28;20036;-68
2022/07/25 05:29:33;;;;;;;10.77;9.20;;;22.20;81.50;;;;;;5032184;28;20729;-69
2022/07/25 05:31:59;;;;;;;11.30;8.90;;;22.50;80.70;;;;;;5027234;28;20350;-68
2022/07/25 05:34:24;;;;;;;10.07;8.98;;;22.60;80.90;;;;;;5026369;28;20021;-68
2022/07/25 05:36:50;;;;;;;12.77;9.65;;;22.80;79.80;;;;;;5029291;28;20021;-69
2022/07/25 05:39:16;;;;;;;13.40;9.77;;;23.00;79.30;;;;;;5037419;28;20476;-68
2022/07/25 05:41:41;;;;;;;12.15;9.23;;;23.20;79.00;;;;;;5035854;28;20326;-68
2022/07/25 05:44:07;;;;;;;11.40;9.43;;;23.40;79.20;;;;;;5037402;28;20046;-68
2022/07/25 05:46:34;;;;;;;10.68;8.93;;;23.50;78.50;;;;;;5032290;28;20037;-68
2022/07/25 05:48:59;;;;;;;11.38;9.25;;;23.70;77.90;;;;;;5032645;28;20010;-68
2022/07/25 05:51:28;;;;;;;11.85;9.60;;;23.90;77.50;;;;;;5044017;28;20070;-69
2022/07/25 05:53:54;;;;;;;12.35;8.82;;;24.10;77.10;;;;;;5028095;28;20033;-68
2022/07/25 05:56:19;;;;;;;12.32;9.82;;;24.20;76.90;;;;;;5038218;28;20108;-70
2022/07/25 05:58:46;;;;;;;11.95;10.00;;;24.40;76.80;;;;;;5037395;28;20092;-67
2022/07/25 06:01:12;;;;;;;13.23;9.48;;;24.50;76.90;;;;;;5039152;28;20036;-68
2022/07/25 06:03:39;;;;;;;11.50;9.52;;;24.60;76.90;;;;;;5034960;28;20029;-68
2022/07/25 06:06:05;;;;;;;13.20;9.85;;;24.70;76.80;;;;;;5039513;28;20816;-69
2022/07/25 06:08:39;;;;;;;11.98;9.95;;;24.80;76.50;;;;;;5037567;28;20025;-68
2022/07/25 06:11:06;;;;;;;11.48;10.13;;;25.00;76.30;;;;;;5035213;28;20030;-69
2022/07/25 06:13:33;;;;;;;11.07;9.88;;;25.10;76.20;;;;;;5039233;28;20411;-66
2022/07/25 06:15:59;;;;;;;13.00;10.00;;;25.20;76.50;;;;;;5036912;28;20928;-66
2022/07/25 06:18:25;;;;;;;11.00;9.48;;;25.20;76.20;;;;;;5041572;28;20029;-66
2022/07/25 06:20:51;;;;;;;13.45;9.40;;;25.20;76.70;;;;;;5037135;28;20315;-66
2022/07/25 06:23:16;;;;;;;10.20;9.10;;;25.40;76.40;;;;;;5044963;28;20030;-68
2022/07/25 06:25:42;;;;;;;11.00;9.52;;;25.50;76.60;;;;;;5034198;28;20025;-68
2022/07/25 06:28:12;;;;;;;14.05;10.50;;;25.50;76.00;;;;;;5038114;28;20079;-68
2022/07/25 06:30:38;;;;;;;11.05;9.85;;;25.70;75.80;;;;;;5034147;28;20037;-68
2022/07/25 06:33:06;;;;;;;12.05;9.93;;;25.80;75.60;;;;;;5036639;28;20022;-68
2022/07/25 06:35:32;;;;;;;12.45;9.57;;;25.90;75.90;;;;;;5025390;28;20228;-68
2022/07/25 06:37:58;;;;;;;13.10;10.38;;;26.00;75.70;;;;;;5018135;28;20719;-68
2022/07/25 06:40:24;;;;;;;12.15;10.40;;;26.20;75.10;;;;;;5033434;28;20059;-68
2022/07/25 06:42:49;;;;;;;12.45;9.50;;;26.30;74.60;;;;;;5028627;28;20033;-67
2022/07/25 06:45:15;;;;;;;12.77;9.90;;;26.50;74.40;;;;;;5034746;28;20726;-68
2022/07/25 06:47:42;;;;;;;11.23;9.57;;;26.60;73.30;;;;;;5036618;28;20488;-68
2022/07/25 06:50:10;;;;;;;11.43;9.70;;;26.70;72.80;;;;;;5033741;28;20029;-68
2022/07/25 06:52:36;;;;;;;11.48;9.23;;;26.90;71.90;;;;;;5034451;28;20033;-69
2022/07/25 06:55:03;;;;;;;10.82;9.73;;;27.30;71.90;;;;;;5033977;28;20037;-69
2022/07/25 06:57:29;;;;;;;10.13;9.00;;;27.80;71.00;;;;;;5036182;28;20045;-69
2022/07/25 06:59:55;;;;;;;10.85;9.40;;;28.60;68.80;;;;;;5018522;28;20033;-69
2022/07/25 07:02:21;;;;;;;10.98;9.73;;;28.90;69.60;;;;;;5033756;28;20120;-69
2022/07/25 07:04:47;;;;;;;11.65;9.35;;;28.70;70.00;;;;;;5033527;28;20080;-68
2022/07/25 07:07:12;;;;;;;12.98;9.27;;;28.50;70.00;;;;;;5035870;28;20041;-69
2022/07/25 07:09:38;;;;;;;13.07;9.88;;;28.20;70.70;;;;;;5038272;28;20105;-69
2022/07/25 07:12:04;;;;;;;11.00;9.48;;;28.10;70.90;;;;;;5023349;28;20029;-69
2022/07/25 07:14:29;;;;;;;13.48;9.68;;;28.00;71.00;;;;;;5038165;28;20026;-68
2022/07/25 07:16:55;;;;;;;11.63;9.23;;;28.00;71.30;;;;;;5037313;28;20056;-69
2022/07/25 07:19:21;;;;;;;12.02;9.00;;;28.00;71.10;;;;;;5034983;28;20418;-68
2022/07/25 07:21:48;;;;;;;10.27;9.07;;;28.00;69.50;;;;;;5020186;28;20045;-68
2022/07/25 07:24:14;;;;;;;12.60;9.02;;;28.10;70.00;;;;;;5039859;28;20030;-69
2022/07/25 07:26:40;;;;;;;11.52;9.25;;;28.20;69.30;;;;;;5032849;28;20445;-68
2022/07/25 07:29:05;;;;;;;11.73;9.48;;;28.20;69.10;;;;;;5028134;28;20033;-69
2022/07/25 07:31:31;;;;;;;11.98;9.35;;;28.20;69.80;;;;;;5033915;28;20021;-68
2022/07/25 07:33:58;;;;;;;12.93;9.60;;;28.10;70.20;;;;;;5037253;28;20032;-69
2022/07/25 07:36:24;;;;;;;13.68;9.73;;;27.80;70.90;;;;;;5029660;28;20025;-68
2022/07/25 07:38:51;;;;;;;10.50;9.10;;;27.90;71.80;;;;;;5035834;28;20033;-68
2022/07/25 07:41:18;;;;;;;11.20;9.43;;;28.50;70.70;;;;;;5034980;28;20322;-69
2022/07/25 07:43:44;;;;;;;10.55;8.98;;;29.50;68.20;;;;;;5035458;28;20041;-69
2022/07/25 07:46:09;;;;;;;11.27;8.85;;;30.70;65.80;;;;;;5035370;28;20028;-69
2022/07/25 07:48:35;;;;;;;10.00;8.60;;;31.40;64.90;;;;;;5035088;28;20096;-68
2022/07/25 07:51:01;;;;;;;12.73;8.73;;;31.90;63.90;;;;;;5036082;28;20326;-69
2022/07/25 07:56:14;;;;;;;9.45;7.63;;;32.80;62.30;;;;;;5034879;28;20117;-69
2022/07/25 07:58:40;;;;;;;9.73;7.75;;;33.60;59.60;;;;;;5035369;28;20048;-69
2022/07/25 08:01:06;;;;;;;11.15;7.70;;;34.20;59.00;;;;;;5034035;28;20030;-69
2022/07/25 08:03:32;;;;;;;9.80;8.00;;;34.60;57.70;;;;;;5028192;28;20523;-68
2022/07/25 08:05:57;;;;;;;10.65;7.18;;;34.20;57.80;;;;;;5029974;28;20026;-69
2022/07/25 08:08:23;;;;;;;9.95;8.20;;;34.30;58.00;;;;;;5026895;28;20080;-69
2022/07/25 08:10:49;;;;;;;12.93;8.10;;;34.90;57.20;;;;;;5033338;28;20021;-69
2022/07/25 08:13:24;;;;;;;11.13;8.57;;;34.70;57.80;;;;;;5031474;28;20061;-70
2022/07/25 08:15:56;;;;;;;9.52;7.78;;;34.50;57.20;;;;;;5036055;28;20044;-73
2022/07/25 08:18:23;;;;;;;11.40;8.67;;;33.50;58.80;;;;;;5023271;28;20026;-75
2022/07/25 08:20:49;;;;;;;10.90;7.93;;;33.00;59.60;;;;;;5024738;28;20415;-73
2022/07/25 08:23:15;;;;;;;14.07;8.35;;;32.30;61.60;;;;;;5026976;28;20432;-68
2022/07/25 08:25:41;;;;;;;12.25;8.57;;;32.10;60.50;;;;;;5032320;28;20034;-69
2022/07/25 08:28:08;;;;;;;9.98;8.13;;;32.50;60.30;;;;;;5032105;28;20423;-74
2022/07/25 08:30:35;;;;;;;14.07;8.35;;;32.80;59.80;;;;;;5035142;28;20334;-69
2022/07/25 08:33:04;;;;;;;12.95;7.95;;;32.70;60.70;;;;;;5035122;28;20128;-69
2022/07/25 08:35:31;;;;;;;12.10;8.35;;;33.00;59.10;;;;;;5035360;28;20057;-69
2022/07/25 08:37:57;;;;;;;7.75;6.32;;;33.70;58.20;;;;;;5034655;28;20034;-68
2022/07/25 08:40:25;;;;;;;8.85;5.82;;;33.60;54.70;;;;;;5034534;28;20029;-69
2022/07/25 08:42:51;;;;;;;8.00;6.07;;;33.70;53.50;;;;;;5036179;28;20056;-69
2022/07/25 08:45:20;;;;;;;6.70;5.35;;;33.70;52.90;;;;;;5038964;28;20046;-69
2022/07/25 08:47:48;;;;;;;8.68;5.47;;;34.10;53.20;;;;;;5034888;28;20029;-69
2022/07/25 08:50:17;;;;;;;7.88;6.10;;;34.30;53.30;;;;;;5035792;28;20424;-69
2022/07/25 08:52:44;;;;;;;9.13;5.82;;;34.50;53.10;;;;;;5036447;28;20029;-69
2022/07/25 08:55:13;;;;;;;9.93;6.10;;;34.40;52.90;;;;;;5034263;28;20030;-68
2022/07/25 08:57:42;;;;;;;9.07;6.35;;;34.80;52.40;;;;;;5035376;28;20064;-69
2022/07/25 09:00:13;;;;;;;8.60;6.10;;;35.00;52.30;;;;;;5034357;28;20037;-69
2022/07/25 09:02:40;;;;;;;6.97;5.35;;;35.40;51.70;;;;;;5034445;28;20029;-69
2022/07/25 09:05:07;;;;;;;8.70;6.15;;;35.80;50.90;;;;;;5036837;28;20025;-69
2022/07/25 09:07:38;;;;;;;10.05;6.40;;;36.00;50.00;;;;;;5039309;28;20041;-67
2022/07/25 09:10:22;;;;;;;7.57;5.90;;;35.60;49.60;;;;;;5032197;28;20035;-67
2022/07/25 09:13:12;;;;;;;6.53;5.22;;;35.20;50.60;;;;;;5041063;28;20029;-67
2022/07/25 09:15:41;;;;;;;7.70;5.10;;;35.00;49.90;;;;;;5035578;28;20025;-67
2022/07/25 09:18:12;;;;;;;8.82;5.40;;;34.30;50.40;;;;;;5039346;28;20033;-69
2022/07/25 09:20:42;;;;;;;8.70;5.60;;;34.20;50.60;;;;;;5038381;28;20068;-69
2022/07/25 09:23:28;;;;;;;8.88;5.40;;;34.40;50.10;;;;;;5039342;28;20096;-69
2022/07/25 09:26:09;;;;;;;9.40;6.00;;;34.90;50.20;;;;;;5036285;28;20083;-69
2022/07/25 09:28:54;;;;;;;8.27;5.35;;;35.20;49.10;;;;;;5037839;28;21713;-68
2022/07/25 09:31:20;;;;;;;7.93;5.63;;;35.00;49.90;;;;;;5038385;28;20035;-68
2022/07/25 09:33:50;;;;;;;8.05;5.60;;;34.90;49.70;;;;;;5040119;28;20048;-69
2022/07/25 09:36:17;;;;;;;6.60;5.70;;;35.30;49.40;;;;;;5038251;28;20429;-69
2022/07/25 09:39:00;;;;;;;7.80;5.47;;;35.70;49.50;;;;;;5039256;28;20021;-69
2022/07/25 09:41:43;;;;;;;8.30;6.20;;;35.20;50.30;;;;;;5030705;28;20032;-69
2022/07/25 09:44:21;;;;;;;;;;;35.20;50.10;;;;;;5027197;28;20057;-69
2022/07/25 09:46:47;;;;;;;8.25;5.65;;;35.20;50.50;;;;;;5038269;28;19909;-69
2022/07/25 09:49:16;;;;;;;9.40;6.55;;;35.20;50.30;;;;;;5036013;28;20014;-69
2022/07/25 09:51:42;;;;;;;8.60;6.00;;;35.00;51.10;;;;;;5038235;28;20288;-68
2022/07/25 09:54:07;;;;;;;7.00;5.10;;;35.10;51.10;;;;;;5039177;28;20021;-69
2022/07/25 09:56:36;;;;;;;9.23;5.38;;;35.40;49.40;;;;;;5036671;28;20040;-69
2022/07/25 09:59:03;;;;;;;7.82;4.45;;;35.70;48.60;;;;;;5037651;28;20029;-68
2022/07/25 10:01:41;;;;;;;6.30;4.60;;;35.80;47.40;;;;;;5038315;28;20120;-68
2022/07/25 10:04:37;;;;;;;6.55;4.40;;;35.80;47.00;;;;;;5038655;28;20112;-68
2022/07/25 10:07:08;;;;;;;5.95;4.10;;;35.90;48.00;;;;;;5024371;28;20013;-69
2022/07/25 10:09:44;;;;;;;6.75;3.85;;;36.00;46.50;;;;;;5026176;28;20041;-68
2022/07/25 10:12:12;;;;;;;6.07;4.55;;;35.80;46.60;;;;;;5025571;28;20108;-69
2022/07/25 10:14:38;;;;;;;7.35;4.50;;;35.40;47.40;;;;;;5039477;28;20469;-69
2022/07/25 10:17:04;;;;;;;6.97;4.50;;;35.60;47.10;;;;;;5037078;28;20032;-68
2022/07/25 10:19:43;;;;;;;8.77;4.40;;;36.00;46.40;;;;;;5037452;28;20025;-69
2022/07/25 10:22:12;;;;;;;6.28;4.40;;;36.20;48.00;;;;;;5037570;28;20096;-69
2022/07/25 10:24:42;;;;;;;7.18;4.20;;;36.60;46.60;;;;;;5038781;28;20361;-69
2022/07/25 10:27:12;;;;;;;8.27;4.68;;;36.70;46.30;;;;;;5025339;28;20096;-67
2022/07/25 10:29:40;;;;;;;5.65;4.63;;;36.10;46.20;;;;;;5032476;28;20317;-69
2022/07/25 10:32:12;;;;;;;10.05;4.38;;;36.30;46.60;;;;;;5037552;28;20365;-69
2022/07/25 10:34:39;;;;;;;7.28;4.63;;;36.30;46.50;;;;;;5037376;28;20030;-69
2022/07/25 10:37:12;;;;;;;5.93;4.38;;;36.50;46.40;;;;;;5038096;28;20426;-69
2022/07/25 10:39:43;;;;;;;6.47;4.97;;;36.50;46.30;;;;;;5038429;28;20036;-69
2022/07/25 10:42:21;;;;;;;6.85;4.75;;;36.00;46.90;;;;;;5034960;28;20291;-69
2022/07/25 10:44:49;;;;;;;6.22;4.80;;;35.90;46.80;;;;;;5032325;28;20107;-69
2022/07/25 10:47:16;;;;;;;7.07;5.20;;;36.00;46.90;;;;;;5040194;28;20017;-68
2022/07/25 10:49:46;;;;;;;6.75;5.07;;;36.20;46.70;;;;;;5035906;28;20025;-69
2022/07/25 10:52:17;;;;;;;9.27;4.78;;;36.00;47.80;;;;;;5036838;28;20077;-68
2022/07/25 10:54:56;;;;;;;8.60;5.07;;;36.00;47.60;;;;;;5038132;28;20299;-69
2022/07/25 10:57:22;;;;;;;5.57;4.78;;;36.10;46.70;;;;;;5036815;28;20056;-69
2022/07/25 10:59:48;;;;;;;9.77;5.93;;;35.80;48.10;;;;;;5035521;28;20061;-69
2022/07/25 11:02:17;;;;;;;6.32;4.85;;;35.90;47.60;;;;;;5036248;28;20033;-69
2022/07/25 11:04:44;;;;;;;8.35;5.20;;;36.20;48.80;;;;;;5035634;28;20084;-69
2022/07/25 11:07:12;;;;;;;6.72;5.40;;;36.70;47.40;;;;;;5038255;28;20057;-68
2022/07/25 11:09:41;;;;;;;6.50;5.05;;;36.70;47.00;;;;;;5034174;28;20147;-68
2022/07/25 11:12:08;;;;;;;6.93;4.63;;;36.50;46.90;;;;;;5034879;28;20021;-68
2022/07/25 11:14:36;;;;;;;7.75;5.43;;;36.70;47.10;;;;;;5037309;28;20380;-68
2022/07/25 11:17:29;;;;;;;6.22;4.80;;;36.80;46.80;;;;;;5036781;28;20420;-68
2022/07/25 11:20:06;;;;;;;6.97;5.43;;;37.40;46.70;;;;;;5035518;28;20147;-68
2022/07/25 11:22:33;;;;;;;7.10;5.28;;;37.00;46.00;;;;;;5034961;28;20033;-68
2022/07/25 11:25:00;;;;;;;6.22;4.72;;;36.70;47.00;;;;;;5036007;28;20139;-68
2022/07/25 11:27:30;;;;;;;6.57;4.93;;;36.60;47.70;;;;;;5036290;28;20056;-68
2022/07/25 11:30:05;;;;;;;6.95;4.78;;;36.60;46.70;;;;;;5035567;28;20022;-68
2022/07/25 11:32:42;;;;;;;6.80;4.82;;;35.90;46.50;;;;;;5036615;28;20044;-68
2022/07/25 11:35:12;;;;;;;6.38;4.60;;;36.20;46.00;;;;;;5017045;28;20033;-68
2022/07/25 11:37:40;;;;;;;9.98;5.00;;;36.50;47.10;;;;;;5033649;28;20068;-68
2022/07/25 11:40:07;;;;;;;6.03;4.57;;;36.80;45.50;;;;;;5034667;28;20091;-68
2022/07/25 11:42:41;;;;;;;8.38;4.90;;;36.60;46.00;;;;;;5037586;28;20041;-68
2022/07/25 11:45:24;;;;;;;6.88;4.32;;;36.50;46.00;;;;;;5036061;28;20049;-68
2022/07/25 11:48:11;;;;;;;6.20;4.32;;;36.70;45.40;;;;;;5035873;28;20335;-68
2022/07/25 11:50:40;;;;;;;7.03;4.50;;;36.50;44.40;;;;;;5019683;28;20036;-68
2022/07/25 11:53:12;;;;;;;5.70;4.13;;;36.00;45.40;;;;;;5038209;28;20575;-68
2022/07/25 11:55:41;;;;;;;6.35;4.40;;;35.90;45.00;;;;;;5034788;28;20082;-68
2022/07/25 11:58:10;;;;;;;6.85;4.05;;;36.10;45.20;;;;;;5035665;28;20021;-68
2022/07/25 12:00:43;;;;;;;5.85;4.30;;;35.80;44.60;;;;;;5035275;28;20045;-67
2022/07/25 12:03:11;;;;;;;6.43;3.95;;;35.40;44.50;;;;;;5033972;28;20315;-67
2022/07/25 12:05:37;;;;;;;5.85;4.28;;;35.60;45.30;;;;;;5033358;28;20782;-66
2022/07/25 12:08:19;;;;;;;8.85;5.13;;;36.00;44.20;;;;;;5035720;28;20108;-66
2022/07/25 12:10:46;;;;;;;9.55;4.43;;;36.00;44.80;;;;;;5035068;28;20392;-66
2022/07/25 12:13:28;;;;;;;7.05;4.32;;;36.00;44.90;;;;;;5027576;28;20098;-68
2022/07/25 12:15:58;;;;;;;6.03;4.47;;;36.10;44.60;;;;;;5036092;28;20027;-67
2022/07/25 12:18:26;;;;;;;7.43;4.60;;;36.60;45.00;;;;;;5031369;28;20037;-67
2022/07/25 12:20:55;;;;;;;7.60;4.35;;;36.70;44.20;;;;;;5035412;28;20108;-68
2022/07/25 12:23:21;;;;;;;6.75;4.30;;;36.50;44.10;;;;;;5038186;28;20108;-66
2022/07/25 12:25:46;;;;;;;7.28;3.90;;;36.40;44.50;;;;;;5034728;28;20072;-67
2022/07/25 12:28:16;;;;;;;7.22;4.43;;;36.30;45.30;;;;;;5034292;28;20029;-67
2022/07/25 12:30:43;;;;;;;5.97;4.10;;;36.60;44.30;;;;;;5035412;28;20426;-67
2022/07/25 12:33:22;;;;;;;6.50;4.30;;;37.40;44.20;;;;;;5031475;28;20033;-67
2022/07/25 12:35:48;;;;;;;6.95;4.28;;;37.40;43.40;;;;;;5015742;28;20492;-68
2022/07/25 12:38:16;;;;;;;5.82;4.22;;;36.20;44.00;;;;;;5026655;28;20108;-68
2022/07/25 12:40:42;;;;;;;6.10;4.05;;;36.10;44.70;;;;;;5030527;28;20037;-68
2022/07/25 12:43:08;;;;;;;7.07;4.07;;;35.80;44.60;;;;;;5033693;28;20044;-68
2022/07/25 12:45:34;;;;;;;7.70;4.20;;;35.60;45.10;;;;;;5035345;28;20056;-68